Time;durP1;ratioP1;P1;durP2;ratioP2;P2;SDS_P1;SDS_P2;PMS_P1;PMS_P2;Temp;Humidity;BMP_temperature;BMP_pressure;BME280_temperature;BME280_humidity;BME280_pressure;Samples;Min_cycle;Max_cycle;Signal;HPM_P1;HPM_P2
2021/05/11 00:01:21;;;;;;;11.70;4.97;;;;;;;8.01;59.55;101085.80;1814152;78;21018;-53
2021/05/11 00:03:51;;;;;;;9.63;5.35;;;;;;;8.01;59.85;101083.06;1784363;80;21006;-53
2021/05/11 00:06:18;;;;;;;10.13;5.00;;;;;;;8.00;60.27;101083.31;1784435;80;21371;-53
2021/05/11 00:08:46;;;;;;;10.63;5.25;;;;;;;7.96;60.28;101091.18;1784280;80;20994;-53
2021/05/11 00:11:13;;;;;;;8.45;4.97;;;;;;;7.92;59.95;101084.52;1794172;79;21041;-53
2021/05/11 00:13:41;;;;;;;9.60;5.47;;;;;;;7.89;59.96;101077.63;1798833;79;20938;-53
2021/05/11 00:16:10;;;;;;;11.12;4.83;;;;;;;7.85;59.63;101079.71;1799104;79;20990;-53
2021/05/11 00:18:40;;;;;;;8.60;6.03;;;;;;;7.84;59.79;101079.41;1798915;79;21005;-53
2021/05/11 00:21:07;;;;;;;8.60;5.72;;;;;;;7.83;60.33;101073.12;1798933;79;20989;-53
2021/05/11 00:23:35;;;;;;;8.58;6.00;;;;;;;7.82;60.27;101064.61;1798160;79;21052;-53
2021/05/11 00:26:03;;;;;;;11.33;5.92;;;;;;;7.82;60.69;101067.34;1798333;79;21060;-53
2021/05/11 00:28:30;;;;;;;10.80;5.87;;;;;;;7.79;60.55;101063.17;1798289;79;20985;-53
2021/05/11 00:30:59;;;;;;;9.35;6.15;;;;;;;7.78;60.81;101060.69;1798231;79;21185;-53
2021/05/11 00:33:27;;;;;;;8.73;5.17;;;;;;;7.76;60.32;101057.37;1798307;79;21025;-53
2021/05/11 00:35:54;;;;;;;8.75;6.20;;;;;;;7.76;60.28;101058.19;1798336;79;21009;-53
2021/05/11 00:38:21;;;;;;;8.55;5.60;;;;;;;7.74;60.48;101055.39;1798541;79;21005;-53
2021/05/11 00:40:49;;;;;;;10.30;6.10;;;;;;;7.72;60.61;101061.10;1798510;79;21048;-53
2021/05/11 00:43:16;;;;;;;13.48;6.78;;;;;;;7.70;61.09;101056.42;1798306;79;21445;-53
2021/05/11 00:45:44;;;;;;;12.95;6.37;;;;;;;7.67;61.31;101058.78;1798406;79;21001;-53
2021/05/11 00:48:12;;;;;;;7.97;5.40;;;;;;;7.62;61.80;101059.51;1798521;79;20973;-53
2021/05/11 00:50:40;;;;;;;8.78;6.33;;;;;;;7.59;61.90;101055.89;1798205;79;20934;-53
2021/05/11 00:53:07;;;;;;;8.78;6.00;;;;;;;7.58;61.78;101052.30;1798359;79;20985;-53
2021/05/11 00:55:35;;;;;;;8.13;5.83;;;;;;;7.57;61.98;101046.56;1798261;79;21190;-53
2021/05/11 00:58:02;;;;;;;10.80;6.97;;;;;;;7.56;62.13;101044.03;1798413;79;20997;-53
2021/05/11 01:00:31;;;;;;;7.78;5.85;;;;;;;7.54;61.94;101044.28;1798314;79;20997;-53
2021/05/11 01:02:58;;;;;;;11.20;6.70;;;;;;;7.54;62.02;101040.17;1798359;78;21067;-53
2021/05/11 01:05:26;;;;;;;12.95;6.65;;;;;;;7.53;62.12;101041.78;1798446;79;20989;-53
2021/05/11 01:07:54;;;;;;;14.53;6.65;;;;;;;7.50;62.57;101043.11;1798382;79;21268;-53
2021/05/11 01:10:21;;;;;;;11.68;7.00;;;;;;;7.47;62.53;101046.30;1797828;79;21611;-53
2021/05/11 01:12:50;;;;;;;9.28;6.35;;;;;;;7.47;62.40;101044.11;1795733;79;21060;-53
2021/05/11 01:15:19;;;;;;;10.13;6.40;;;;;;;7.45;62.25;101042.98;1795829;79;20981;-53
2021/05/11 01:17:59;;;;;;;9.75;6.53;;;;;;;7.43;62.27;101042.37;1795812;79;21020;-53
2021/05/11 01:20:33;;;;;;;11.03;7.25;;;;;;;7.40;62.66;101044.22;1794826;79;21375;-54
2021/05/11 01:25:45;;;;;;;13.22;7.05;;;;;;;7.32;63.31;101036.39;1795959;79;21009;-54
2021/05/11 01:28:20;;;;;;;12.45;7.58;;;;;;;7.27;63.69;101042.55;1795904;79;21001;-53
2021/05/11 01:43:54;;;;;;;12.88;6.78;;;;;;;7.28;63.97;101040.12;1795828;79;21187;-53
2021/05/11 01:44:09;;;;;;;11.08;6.95;;;;;;;7.15;64.50;101035.70;1795667;79;21635;-53
2021/05/11 01:52:19;;;;;;;10.68;7.35;;;;;;;7.04;65.14;101041.98;1795831;79;21012;-54
2021/05/11 02:24:28;;;;;;;12.10;8.58;;;;;;;6.93;65.62;101049.11;1795860;79;20985;-54
2021/05/11 02:26:55;;;;;;;11.12;7.40;;;;;;;6.91;65.87;101043.84;1795866;79;21607;-54
2021/05/11 02:29:23;;;;;;;12.78;7.75;;;;;;;6.93;65.33;101046.38;1795871;79;21535;-54
2021/05/11 02:31:50;;;;;;;13.20;8.80;;;;;;;6.95;65.26;101044.77;1795835;79;21033;-54
2021/05/11 02:34:18;;;;;;;13.45;8.08;;;;;;;6.97;65.41;101040.71;1795667;79;21033;-54
2021/05/11 02:36:45;;;;;;;20.72;9.25;;;;;;;6.98;65.59;101042.94;1795779;79;20969;-53
2021/05/11 02:39:13;;;;;;;13.22;8.43;;;;;;;6.99;65.74;101037.75;1795829;79;21424;-53
2021/05/11 02:41:43;;;;;;;13.80;7.97;;;;;;;7.01;65.87;101045.19;1795629;79;21001;-53
2021/05/11 02:44:10;;;;;;;11.97;7.92;;;;;;;7.01;65.91;101049.28;1795628;79;20994;-54
2021/05/11 02:46:38;;;;;;;12.65;8.55;;;;;;;7.02;66.38;101046.86;1795776;79;21017;-54
2021/05/11 02:49:07;;;;;;;10.55;8.43;;;;;;;7.04;66.19;101042.80;1795763;79;21044;-54
2021/05/11 02:51:34;;;;;;;14.80;8.45;;;;;;;7.08;66.02;101044.00;1795686;79;21141;-54
2021/05/11 02:54:03;;;;;;;25.15;9.35;;;;;;;7.14;66.01;101038.68;1795246;79;21667;-54
2021/05/11 02:56:31;;;;;;;19.52;9.25;;;;;;;7.17;66.32;101043.13;1795690;79;21021;-54
2021/05/11 02:58:58;;;;;;;16.12;8.20;;;;;;;7.21;66.40;101038.85;1795827;79;21029;-54
2021/05/11 03:01:29;;;;;;;11.43;7.85;;;;;;;7.28;66.73;101036.02;1795618;79;21103;-54
2021/05/11 03:03:57;;;;;;;11.53;7.22;;;;;;;7.38;66.80;101039.53;1795663;79;21354;-53
2021/05/11 03:06:25;;;;;;;11.80;7.50;;;;;;;7.48;67.00;101042.50;1795740;79;20965;-53
2021/05/11 03:08:52;;;;;;;10.18;7.78;;;;;;;7.57;67.46;101040.23;1795715;79;20941;-54
2021/05/11 03:11:20;;;;;;;12.58;7.67;;;;;;;7.64;67.65;101031.92;1792956;79;21028;-53
2021/05/11 03:13:49;;;;;;;10.98;7.70;;;;;;;7.76;67.82;101034.13;1786475;80;21004;-54
2021/05/11 03:16:17;;;;;;;29.30;11.25;;;;;;;7.85;67.87;101033.22;1786783;79;21187;-54
2021/05/11 03:18:44;;;;;;;31.82;11.30;;;;;;;7.92;67.71;101029.27;1786685;80;20970;-54
2021/05/11 03:21:15;;;;;;;32.42;10.08;;;;;;;8.03;67.67;101029.48;1786776;80;20998;-54
2021/05/11 03:23:43;;;;;;;20.25;9.18;;;;;;;8.15;67.72;101045.88;1786630;80;21048;-54
2021/05/11 03:26:11;;;;;;;23.27;9.23;;;;;;;8.26;67.43;101040.37;1786724;80;20986;-54
2021/05/11 03:28:38;;;;;;;29.90;10.28;;;;;;;8.40;67.20;101029.98;1786859;80;22106;-54
2021/05/11 03:31:05;;;;;;;10.85;6.90;;;;;;;8.53;66.58;101031.62;1786652;80;21056;-54
2021/05/11 03:33:33;;;;;;;48.23;11.57;;;;;;;8.68;64.37;101030.23;1786686;80;20950;-53
2021/05/11 03:36:01;;;;;;;13.45;6.50;;;;;;;8.87;63.77;101037.69;1786786;80;20997;-54
2021/05/11 03:38:29;;;;;;;13.95;7.10;;;;;;;9.05;62.19;101031.16;1786941;79;20985;-54
2021/05/11 03:40:57;;;;;;;16.12;6.30;;;;;;;9.24;60.96;101033.92;1786866;80;21189;-54
2021/05/11 03:43:28;;;;;;;9.88;6.17;;;;;;;9.43;58.06;101029.55;1786595;80;21022;-54
2021/05/11 03:45:59;;;;;;;9.35;6.15;;;;;;;9.63;57.01;101020.27;1786519;80;22238;-54
2021/05/11 03:48:32;;;;;;;13.72;7.08;;;;;;;9.89;55.70;101026.11;1888746;76;22565;-53
2021/05/11 03:51:15;;;;;;;9.73;6.45;;;;;;;10.07;55.79;101021.39;1888854;76;22724;-53
2021/05/11 03:54:00;;;;;;;12.03;6.60;;;;;;;10.15;55.12;101031.38;1859504;77;20977;-53
2021/05/11 03:56:36;;;;;;;14.35;6.95;;;;;;;10.35;54.20;101025.32;1846691;76;22677;-53
2021/05/11 03:59:11;;;;;;;17.87;7.37;;;;;;;10.48;53.69;101026.84;1888594;76;22552;-53
2021/05/11 04:01:57;;;;;;;18.25;9.93;;;;;;;10.53;53.10;101028.27;1856636;77;21044;-54
2021/05/11 04:04:32;;;;;;;22.25;8.80;;;;;;;10.67;53.18;101031.45;1888451;76;22571;-53
2021/05/11 04:07:07;;;;;;;17.57;7.60;;;;;;;10.78;52.71;101032.36;1846604;76;22680;-53
2021/05/11 04:09:58;;;;;;;13.28;6.97;;;;;;;10.79;51.83;101039.53;1816817;79;21674;-53
2021/05/11 04:18:13;;;;;;;11.12;6.22;;;;;;;10.95;50.81;101041.87;1808154;79;21006;-53
2021/05/11 04:20:48;;;;;;;9.60;6.28;;;;;;;11.10;49.82;101043.09;1835875;78;23317;-53
2021/05/11 04:23:23;;;;;;;9.60;5.17;;;;;;;11.18;49.51;101036.56;1846729;76;22763;-56
2021/05/11 04:25:59;;;;;;;10.18;5.40;;;;;;;11.27;49.06;101032.78;1846692;76;23336;-53
2021/05/11 04:28:46;;;;;;;18.07;6.35;;;;;;;11.32;48.44;101038.89;1816667;79;21013;-53
2021/05/11 04:31:21;;;;;;;36.35;8.60;;;;;;;11.51;48.06;101032.41;1830782;76;27944;-53
2021/05/11 04:33:57;;;;;;;15.55;5.33;;;;;;;11.65;47.47;101033.60;1846574;76;22856;-53
2021/05/11 04:36:32;;;;;;;10.53;4.80;;;;;;;11.71;47.11;101040.78;1846213;76;22731;-53
2021/05/11 04:39:07;;;;;;;6.62;4.35;;;;;;;11.78;47.01;101032.86;1846160;76;22740;-53
2021/05/11 04:41:45;;;;;;;7.65;4.42;;;;;;;11.86;46.66;101037.31;1888069;76;23209;-55
2021/05/11 04:44:48;;;;;;;9.88;4.22;;;;;;;11.92;46.11;101034.85;1875186;75;23151;-53
2021/05/11 04:47:46;;;;;;;7.17;4.45;;;;;;;11.98;45.80;101028.03;1843804;76;22763;-53
2021/05/11 04:50:42;;;;;;;6.80;3.60;;;;;;;12.04;45.58;101026.39;1845803;76;22735;-54
2021/05/11 04:53:25;;;;;;;9.55;4.37;;;;;;;12.00;45.07;101018.95;1815893;78;20974;-54
2021/05/11 04:56:08;;;;;;;13.30;4.30;;;;;;;12.09;45.07;101020.92;1887761;76;23577;-53
2021/05/11 04:58:45;;;;;;;8.33;4.40;;;;;;;12.17;44.20;101024.25;1775223;79;22822;-53
2021/05/11 05:01:20;;;;;;;7.72;4.35;;;;;;;12.21;43.80;101019.30;1822705;76;22802;-54
2021/05/11 05:04:16;;;;;;;8.65;4.40;;;;;;;12.28;44.01;101024.02;1884469;75;22798;-53
2021/05/11 05:06:57;;;;;;;23.65;5.60;;;;;;;12.38;43.88;101017.71;1888693;76;22569;-53
2021/05/11 05:09:32;;;;;;;13.35;4.58;;;;;;;12.43;43.89;101016.36;1846748;76;22678;-54
2021/05/11 05:12:08;;;;;;;13.88;5.25;;;;;;;12.51;43.47;101014.17;1846647;76;22724;-54
2021/05/11 05:14:43;;;;;;;11.05;5.47;;;;;;;12.56;43.50;101008.66;1830555;76;27784;-53
2021/05/11 05:17:28;;;;;;;23.20;6.17;;;;;;;12.64;43.18;101013.64;1816605;78;21006;-54
2021/05/11 05:20:05;;;;;;;8.90;4.47;;;;;;;12.81;42.58;101018.09;1846674;76;22693;-55
2021/05/11 05:22:42;;;;;;;41.33;7.47;;;;;;;12.92;42.66;101010.11;1867201;76;28364;-53
2021/05/11 05:25:29;;;;;;;17.50;5.10;;;;;;;13.03;42.22;101011.77;1851519;77;20948;-54
2021/05/11 05:28:09;;;;;;;12.47;4.65;;;;;;;13.19;42.08;101007.06;1846732;76;22783;-53
2021/05/11 05:30:46;;;;;;;8.53;3.90;;;;;;;13.32;41.72;101005.67;1888495;76;22718;-53
2021/05/11 05:33:35;;;;;;;10.38;4.90;;;;;;;13.41;41.23;101014.25;1859506;77;20973;-53
2021/05/11 05:36:10;;;;;;;8.38;3.92;;;;;;;13.63;40.96;101005.63;1846598;76;22757;-53
2021/05/11 05:38:45;;;;;;;28.80;6.10;;;;;;;13.75;39.97;100999.27;1846723;76;22686;-53
2021/05/11 05:41:24;;;;;;;10.40;5.08;;;;;;;13.88;39.70;100991.50;1850944;77;23252;-53
2021/05/11 05:44:09;;;;;;;11.53;5.03;;;;;;;13.92;39.35;100989.83;1748816;82;21033;-54
2021/05/11 05:46:44;;;;;;;8.28;4.30;;;;;;;14.08;39.44;100989.20;1888763;76;22620;-53
2021/05/11 05:49:20;;;;;;;12.98;4.65;;;;;;;14.15;39.36;100985.02;1888712;76;22577;-53
2021/05/11 05:52:01;;;;;;;13.28;4.45;;;;;;;14.26;39.45;100993.24;1888829;75;22527;-54
2021/05/11 05:54:32;;;;;;;9.85;4.83;;;;;;;14.38;39.34;100990.98;1866949;76;27701;-53
2021/05/11 05:57:17;;;;;;;7.30;4.12;;;;;;;14.48;38.80;100988.14;1851609;77;21025;-53
2021/05/11 06:00:16;;;;;;;14.93;5.20;;;;;;;14.67;37.96;100981.97;1841222;75;22789;-53
2021/05/11 06:02:53;;;;;;;11.05;3.98;;;;;;;14.78;38.27;100982.73;1826352;75;22803;-54
2021/05/11 06:05:29;;;;;;;16.93;5.55;;;;;;;14.92;38.13;100985.11;1865246;76;27713;-54
2021/05/11 06:08:05;;;;;;;13.30;4.30;;;;;;;15.09;38.03;100970.86;1871618;76;27593;-54
2021/05/11 06:10:40;;;;;;;5.25;3.10;;;;;;;15.26;37.38;100975.12;1846353;76;23283;-54
2021/05/11 06:13:33;;;;;;;17.23;3.70;;;;;;;15.28;36.70;100979.82;1780168;80;21427;-54
2021/05/11 06:19:04;;;;;;;18.20;4.47;;;;;;;15.56;36.43;100979.51;1888156;76;22744;-54
2021/05/11 06:21:39;;;;;;;20.57;5.70;;;;;;;15.67;36.60;100987.16;1842016;76;22737;-53
2021/05/11 06:24:17;;;;;;;8.35;3.58;;;;;;;15.79;36.47;100988.99;1846391;76;22794;-53
2021/05/11 06:26:54;;;;;;;12.68;4.10;;;;;;;15.89;35.67;100977.78;1887672;76;22990;-53
2021/05/11 06:29:32;;;;;;;6.45;3.85;;;;;;;15.97;34.99;100978.25;1850515;77;22756;-53
2021/05/11 06:32:08;;;;;;;11.78;3.30;;;;;;;16.09;35.11;100986.13;1888329;76;23155;-54
2021/05/11 06:37:26;;;;;;;5.97;3.47;;;;;;;16.25;34.00;100979.27;1871713;76;27691;-54
2021/05/11 06:40:01;;;;;;;6.75;2.90;;;;;;;16.35;33.25;100979.70;1835656;78;22709;-53
2021/05/11 06:42:38;;;;;;;16.27;4.25;;;;;;;16.42;33.49;100974.60;1846360;76;23355;-54
2021/05/11 06:48:14;;;;;;;6.83;3.15;;;;;;;16.67;33.27;100987.23;1845913;76;22676;-54
2021/05/11 06:53:53;;;;;;;11.33;3.80;;;;;;;16.82;33.22;100984.80;1833688;76;21114;-55
2021/05/11 06:56:30;;;;;;;13.25;3.45;;;;;;;16.99;33.19;100980.66;1872577;75;22761;-55
2021/05/11 06:59:04;;;;;;;9.98;4.10;;;;;;;17.04;33.50;100965.33;1838040;76;27811;-54
2021/05/11 07:01:39;;;;;;;16.60;3.95;;;;;;;17.12;33.34;100972.97;1847459;76;23251;-54
2021/05/11 07:04:14;;;;;;;4.85;2.90;;;;;;;17.21;33.54;100963.37;1846316;75;22678;-55
2021/05/11 07:06:49;;;;;;;10.15;3.10;;;;;;;17.26;33.17;100964.10;1846057;76;22698;-55
2021/05/11 07:14:48;;;;;;;9.10;3.50;;;;;;;17.39;32.94;100961.63;1850648;77;21019;-54
2021/05/11 07:17:23;;;;;;;5.97;3.10;;;;;;;17.54;33.01;100964.12;1842528;76;22752;-59
2021/05/11 07:19:58;;;;;;;5.83;3.08;;;;;;;17.70;32.85;100970.77;1855568;76;24305;-56
2021/05/11 07:22:33;;;;;;;11.53;3.20;;;;;;;17.79;32.46;100973.11;1854892;76;22909;-56
2021/05/11 07:25:12;;;;;;;26.42;6.35;;;;;;;17.91;31.59;100963.69;1823971;78;22744;-55
2021/05/11 07:30:30;;;;;;;12.80;4.47;;;;;;;18.11;31.93;100961.63;1852034;76;22664;-56
2021/05/11 07:33:16;;;;;;;11.70;4.67;;;;;;;18.14;31.41;100956.24;1824483;77;21104;-55
2021/05/11 07:35:58;;;;;;;21.77;5.03;;;;;;;18.34;31.45;100956.12;1853476;76;22789;-54
2021/05/11 07:38:34;;;;;;;17.12;5.95;;;;;;;18.42;31.00;100961.75;1851327;76;22696;-55
2021/05/11 07:41:12;;;;;;;12.78;5.47;;;;;;;18.52;30.84;100948.18;1853900;76;22657;-57
2021/05/11 07:43:52;;;;;;;28.65;5.72;;;;;;;18.63;31.34;100953.75;1855827;75;23326;-55
2021/05/11 08:06:28;;;;;;;17.98;7.42;;;;;;;19.32;28.01;100887.72;1854771;76;22664;-54
2021/05/11 08:14:54;;;;;;;11.33;3.52;;;;;;;19.57;28.18;100915.39;1861204;75;24592;-56
2021/05/11 08:17:21;;;;;;;8.83;3.87;;;;;;;19.68;28.08;100922.31;1796957;77;27913;-54
2021/05/11 08:20:18;;;;;;;9.43;3.37;;;;;;;19.77;28.21;100910.38;1784228;79;21049;-56
2021/05/11 08:28:24;;;;;;;8.95;3.35;;;;;;;20.16;27.67;100901.14;1844564;76;23382;-57
2021/05/11 08:30:59;;;;;;;10.53;5.00;;;;;;;20.29;27.11;100895.70;1884177;74;23537;-54
2021/05/11 08:33:40;;;;;;;17.55;4.42;;;;;;;20.38;27.36;100901.53;1829337;76;23331;-56
2021/05/11 08:36:18;;;;;;;12.85;5.85;;;;;;;20.48;27.20;100896.79;1850860;76;22703;-57
2021/05/11 08:38:57;;;;;;;12.88;3.42;;;;;;;20.54;26.64;100892.67;1880274;74;22684;-57
2021/05/11 08:41:37;;;;;;;7.00;3.37;;;;;;;20.68;27.74;100886.36;1836878;76;22663;-55
2021/05/11 08:44:16;;;;;;;5.62;2.85;;;;;;;20.89;27.05;100895.41;1853397;75;23328;-58
2021/05/11 08:46:51;;;;;;;18.25;3.52;;;;;;;21.07;26.45;100893.41;1851140;76;22697;-56
2021/05/11 08:49:42;;;;;;;6.67;2.72;;;;;;;21.12;26.29;100887.66;1827899;76;20962;-58
2021/05/11 08:52:33;;;;;;;17.12;3.00;;;;;;;21.29;26.22;100886.77;1854123;76;22898;-56
2021/05/11 08:55:16;;;;;;;8.58;3.02;;;;;;;21.31;26.60;100877.46;1842002;75;22679;-57
2021/05/11 09:07:00;;;;;;;5.92;2.92;;;;;;;21.79;27.37;100864.81;1855497;76;22701;-56
2021/05/11 09:09:47;;;;;;;6.08;2.35;;;;;;;21.85;26.91;100869.04;1825908;76;21038;-56
2021/05/11 09:56:33;;;;;;;9.15;2.22;;;;;;;23.35;24.53;100811.81;1796254;76;21155;-57
2021/05/11 09:59:18;;;;;;;7.20;2.12;;;;;;;23.38;24.69;100799.33;1840156;76;22301;-54
2021/05/11 10:12:13;;;;;;;6.40;2.72;;;;;;;24.01;25.58;100798.62;1843118;75;22737;-55
2021/05/11 10:41:53;;;;;;;17.07;2.45;;;;;;;25.60;24.41;100774.05;1860145;75;22832;-55
2021/05/11 10:47:02;;;;;;;12.60;7.42;;;;;;;25.81;23.88;100746.98;1851890;76;22842;-56
2021/05/11 10:49:49;;;;;;;16.02;5.20;;;;;;;25.86;24.21;100750.31;1819158;77;22263;-55
2021/05/11 10:55:16;;;;;;;18.92;3.52;;;;;;;26.21;23.87;100749.41;1854906;75;22854;-54
2021/05/11 10:58:04;;;;;;;8.20;3.00;;;;;;;26.28;23.71;100750.72;1814696;76;21065;-56
2021/05/11 11:00:44;;;;;;;11.55;3.15;;;;;;;26.51;23.42;100747.34;1842542;76;22701;-54
2021/05/11 11:03:27;;;;;;;23.57;4.47;;;;;;;26.55;23.75;100740.36;1832769;76;22697;-56
2021/05/11 11:06:01;;;;;;;8.08;2.37;;;;;;;26.62;23.29;100735.45;1847910;76;38506;-56
2021/05/11 11:08:47;;;;;;;41.60;5.67;;;;;;;26.71;23.33;100742.49;1824581;77;21053;-55
2021/05/11 11:11:21;;;;;;;4.22;1.90;;;;;;;26.81;23.42;100748.09;1842821;76;22719;-55
2021/05/11 11:13:56;;;;;;;21.37;2.65;;;;;;;26.87;23.08;100742.34;1810000;78;22692;-55
2021/05/11 11:16:31;;;;;;;22.73;3.30;;;;;;;26.96;23.89;100734.23;1858454;75;22709;-56
2021/05/11 11:19:10;;;;;;;7.20;2.35;;;;;;;27.03;23.26;100738.58;1840906;76;22848;-56
2021/05/11 11:24:37;;;;;;;3.83;1.60;;;;;;;27.04;23.05;100724.70;1837330;76;22689;-55
2021/05/11 11:27:12;;;;;;;8.73;1.98;;;;;;;27.11;23.09;100723.41;1816451;78;23056;-55
2021/05/11 11:30:10;;;;;;;14.73;1.92;;;;;;;27.22;22.53;100721.55;1840542;76;22765;-55
2021/05/11 11:32:49;;;;;;;10.25;2.50;;;;;;;27.35;23.02;100719.92;1809859;78;22624;-56
2021/05/11 11:35:26;;;;;;;14.83;2.50;;;;;;;27.49;23.18;100708.84;1834974;76;22758;-56
2021/05/11 11:38:05;;;;;;;6.40;1.75;;;;;;;27.65;23.14;100706.42;1858569;76;22748;-55
2021/05/11 11:40:58;;;;;;;13.60;2.65;;;;;;;27.61;22.85;100706.39;1826573;77;21048;-55
2021/05/11 11:43:33;;;;;;;5.60;2.50;;;;;;;27.77;22.79;100699.13;1856744;76;22747;-56
2021/05/11 11:46:08;;;;;;;18.77;2.77;;;;;;;27.85;23.00;100696.61;1850490;76;22737;-55
2021/05/11 11:49:00;;;;;;;10.03;2.15;;;;;;;28.03;23.49;100695.41;1854110;76;23065;-57
2021/05/11 12:00:29;;;;;;;11.68;2.77;;;;;;;28.59;22.52;100685.64;1892054;74;22695;-56
2021/05/11 12:03:17;;;;;;;9.65;2.67;;;;;;;28.70;22.88;100687.98;1782305;79;21054;-54
2021/05/11 12:05:54;;;;;;;19.98;3.58;;;;;;;28.85;22.33;100690.33;1838640;76;27940;-54
2021/05/11 12:08:30;;;;;;;6.42;1.90;;;;;;;28.89;21.88;100691.14;1874764;76;21999;-54
2021/05/11 12:11:06;;;;;;;19.20;3.02;;;;;;;28.90;22.05;100691.36;1893426;75;22651;-54
2021/05/11 12:13:53;;;;;;;18.07;2.30;;;;;;;28.91;21.77;100690.77;1803366;78;21016;-54
2021/05/11 12:16:44;;;;;;;6.22;1.90;;;;;;;28.83;22.06;100682.83;1838650;76;23366;-55
2021/05/11 12:22:05;;;;;;;24.65;3.05;;;;;;;28.72;22.46;100679.11;1844433;75;29625;-54
2021/05/11 12:24:58;;;;;;;13.15;2.20;;;;;;;28.92;22.29;100674.83;1810551;78;23363;-56
2021/05/11 12:27:43;;;;;;;18.30;2.27;;;;;;;29.01;22.36;100669.41;1783753;80;21013;-56
2021/05/11 12:30:21;;;;;;;13.62;2.37;;;;;;;29.14;21.98;100672.13;1858613;76;22675;-55
2021/05/11 12:33:04;;;;;;;6.62;1.85;;;;;;;29.17;21.75;100674.16;1857696;76;22704;-55
2021/05/11 12:35:50;;;;;;;14.07;2.00;;;;;;;29.17;22.33;100664.27;1827394;77;21005;-54
2021/05/11 12:38:27;;;;;;;15.68;2.35;;;;;;;29.51;21.54;100655.56;1843556;76;22814;-53
2021/05/11 12:41:09;;;;;;;16.90;2.55;;;;;;;29.58;21.62;100650.52;1838612;76;27797;-55
2021/05/11 12:43:49;;;;;;;6.22;1.67;;;;;;;29.78;21.82;100645.31;1837527;76;22666;-53
2021/05/11 12:46:29;;;;;;;9.90;2.35;;;;;;;29.89;21.93;100658.13;1837192;76;28020;-54
2021/05/11 12:49:16;;;;;;;7.95;1.80;;;;;;;30.06;21.61;100650.88;1857685;76;22720;-54
2021/05/11 12:51:54;;;;;;;19.87;2.05;;;;;;;29.98;21.21;100640.96;1860213;76;22618;-54
2021/05/11 12:54:50;;;;;;;26.55;2.70;;;;;;;29.87;21.92;100654.28;1832255;76;21054;-54
2021/05/11 12:57:33;;;;;;;22.17;2.17;;;;;;;29.79;21.19;100635.62;1881844;74;22746;-54
2021/05/11 13:00:43;;;;;;;30.27;2.70;;;;;;;29.70;21.28;100633.80;1854880;76;22656;-54
2021/05/11 13:03:23;;;;;;;14.93;2.58;;;;;;;29.57;21.60;100630.52;1879615;75;22639;-54
2021/05/11 13:26:11;;;;;;;10.43;2.30;;;;;;;28.93;24.41;100600.72;1838333;76;27866;-57
2021/05/11 13:31:33;;;;;;;14.60;2.37;;;;;;;29.08;24.28;100582.63;1855139;76;22631;-58
2021/05/11 13:34:13;;;;;;;11.10;2.02;;;;;;;28.92;24.23;100590.60;1826521;77;21033;-58
2021/05/11 13:36:48;;;;;;;19.70;2.70;;;;;;;28.79;24.38;100578.24;1855086;76;22755;-58
2021/05/11 13:39:22;;;;;;;13.15;2.67;;;;;;;28.70;24.83;100584.03;1880781;74;22627;-59
2021/05/11 13:41:57;;;;;;;9.98;1.75;;;;;;;28.67;24.47;100585.63;1844414;76;23062;-57
2021/05/11 13:44:32;;;;;;;18.35;2.55;;;;;;;28.68;24.28;100582.19;1822455;78;22772;-58
2021/05/11 13:47:13;;;;;;;13.40;2.10;;;;;;;28.61;24.34;100577.30;1853671;76;22836;-59
2021/05/11 13:49:51;;;;;;;11.48;2.20;;;;;;;28.76;24.58;100588.09;1868038;76;22751;-59
2021/05/11 13:52:32;;;;;;;10.15;1.90;;;;;;;28.83;23.11;100578.25;1842388;76;22701;-58
2021/05/11 13:55:24;;;;;;;5.87;1.90;;;;;;;28.79;23.33;100571.76;1811804;78;21055;-55
2021/05/11 14:03:47;;;;;;;18.90;2.10;;;;;;;28.78;23.75;100571.58;1835694;76;22769;-57
2021/05/11 14:06:32;;;;;;;9.98;2.12;;;;;;;28.79;24.46;100568.93;1811408;78;21549;-58
2021/05/11 14:09:07;;;;;;;12.05;3.05;;;;;;;28.98;24.43;100568.42;1881820;74;23324;-60
2021/05/11 14:11:42;;;;;;;19.87;3.15;;;;;;;29.20;23.47;100571.55;1856741;76;22804;-58
2021/05/11 14:14:18;;;;;;;9.88;2.00;;;;;;;29.36;22.58;100561.95;1858216;76;22784;-56
2021/05/11 14:16:53;;;;;;;11.12;1.95;;;;;;;29.37;22.82;100569.23;1854938;76;22681;-58
2021/05/11 14:19:38;;;;;;;10.00;1.87;;;;;;;29.20;22.86;100565.89;1827607;77;21464;-58
2021/05/11 14:22:13;;;;;;;10.85;2.40;;;;;;;29.19;22.96;100557.20;1845038;75;22653;-59
2021/05/11 14:24:48;;;;;;;9.50;2.22;;;;;;;29.11;23.61;100562.64;1854551;76;22722;-58
2021/05/11 14:27:29;;;;;;;8.70;1.95;;;;;;;28.96;23.80;100561.75;1842371;76;22738;-58
2021/05/11 14:30:07;;;;;;;10.80;1.72;;;;;;;28.86;23.41;100558.28;1844219;76;22632;-58
2021/05/11 14:32:52;;;;;;;10.60;2.40;;;;;;;28.69;23.09;100559.19;1751327;81;21096;-58
2021/05/11 14:35:27;;;;;;;12.70;2.83;;;;;;;28.70;23.65;100557.98;1842045;76;21906;-59
2021/05/11 14:38:02;;;;;;;10.82;2.35;;;;;;;28.60;24.03;100549.63;1882421;74;22650;-58
2021/05/11 14:40:48;;;;;;;14.70;2.98;;;;;;;28.56;24.21;100546.57;1849055;76;21656;-57
2021/05/11 14:43:22;;;;;;;8.40;2.42;;;;;;;28.71;24.22;100546.90;1855175;76;23354;-57
2021/05/11 14:45:59;;;;;;;12.58;2.55;;;;;;;28.69;23.80;100545.05;1853597;76;23410;-57
2021/05/11 14:48:45;;;;;;;7.55;2.17;;;;;;;28.61;23.80;100537.16;1807508;77;20953;-57
2021/05/11 14:51:20;;;;;;;5.30;2.00;;;;;;;28.69;23.92;100537.19;1893538;75;23328;-57
2021/05/11 14:53:55;;;;;;;12.20;2.90;;;;;;;28.63;23.68;100527.48;1860777;76;23409;-56
2021/05/11 14:56:38;;;;;;;8.95;1.87;;;;;;;28.67;23.49;100526.28;1843461;76;22876;-58
2021/05/11 14:59:20;;;;;;;11.90;3.12;;;;;;;28.54;23.38;100535.67;1801630;78;21023;-54
2021/05/11 15:01:55;;;;;;;12.88;2.25;;;;;;;28.36;23.96;100527.68;1858493;76;22654;-58
2021/05/11 15:04:31;;;;;;;25.07;3.70;;;;;;;28.18;24.62;100528.37;1767724;79;28095;-58
2021/05/11 15:07:06;;;;;;;8.73;1.92;;;;;;;28.16;24.49;100525.11;1843358;76;22876;-57
2021/05/11 15:09:42;;;;;;;6.85;2.55;;;;;;;28.03;24.56;100523.81;1843627;76;23109;-53
2021/05/11 15:12:20;;;;;;;14.93;2.22;;;;;;;27.84;24.46;100520.00;1875010;74;22011;-53
2021/05/11 15:15:09;;;;;;;16.48;3.77;;;;;;;27.61;24.78;100526.41;1785385;79;21041;-52
2021/05/11 15:20:19;;;;;;;18.12;3.22;;;;;;;27.12;25.38;100503.71;1841423;76;22747;-53
2021/05/11 15:23:05;;;;;;;;;;;;;;;26.89;25.57;100509.48;1809541;78;21046;-53
2021/05/11 15:25:40;;;;;;;21.45;3.87;;;;;;;26.76;25.63;100501.87;1885401;75;23289;-53
2021/05/11 15:28:15;;;;;;;30.97;3.65;;;;;;;26.55;26.14;100502.36;1839658;76;22858;-53
2021/05/11 15:30:49;;;;;;;32.30;4.58;;;;;;;26.44;26.59;100499.41;1841771;76;22792;-53
2021/05/11 15:33:25;;;;;;;39.53;6.28;;;;;;;26.38;26.78;100503.75;1863117;76;22757;-53
2021/05/11 15:36:00;;;;;;;7.55;2.10;;;;;;;26.33;27.06;100504.07;1860750;76;23309;-52
2021/05/11 15:38:35;;;;;;;34.05;5.08;;;;;;;26.31;27.01;100505.05;1859158;76;22645;-53
2021/05/11 15:41:10;;;;;;;18.10;3.25;;;;;;;26.32;27.29;100509.48;1844074;76;23315;-53
2021/05/11 15:44:05;;;;;;;11.15;2.60;;;;;;;26.41;26.90;100510.03;1859622;75;22800;-53
2021/05/11 15:46:40;;;;;;;9.05;2.80;;;;;;;26.40;27.12;100504.17;1824532;76;22827;-53
2021/05/11 15:49:26;;;;;;;9.63;2.90;;;;;;;26.27;27.29;100505.59;1781784;80;21033;-54
2021/05/11 15:52:01;;;;;;;5.72;2.77;;;;;;;26.24;27.42;100497.88;1844965;76;22640;-53
2021/05/11 15:54:35;;;;;;;5.42;2.10;;;;;;;26.19;27.50;100499.03;1863565;76;22693;-54
2021/05/11 15:57:10;;;;;;;9.45;3.20;;;;;;;26.15;27.56;100498.98;1854778;76;22654;-54
2021/05/11 15:59:45;;;;;;;12.07;3.60;;;;;;;26.11;27.77;100502.34;1844206;76;22660;-53
2021/05/11 16:02:23;;;;;;;12.55;3.22;;;;;;;26.02;27.94;100507.41;1859526;76;22862;-54
2021/05/11 16:05:06;;;;;;;7.60;2.37;;;;;;;25.87;28.03;100497.30;1892382;74;22682;-53
2021/05/11 16:07:51;;;;;;;12.93;2.40;;;;;;;25.64;28.28;100495.09;1854294;76;21307;-53
2021/05/11 16:10:28;;;;;;;11.70;2.67;;;;;;;25.48;28.65;100494.62;1895343;75;22722;-54
2021/05/11 16:13:13;;;;;;;13.85;3.15;;;;;;;25.29;28.92;100489.00;1830922;77;22873;-53